Niles, Mississippi
Current Conditions -  °F | °C
As of 9:15 PM on Saturday 20 Dec 2014 (Local Time) from KRNV Reporting Station
Clear Clear  
Wind Chill: 35°   Ceiling: Unl
Heat Index: 40°   Visibility: 10mi
Dew Point: 38°   Wind: 7mph
Humidity: 92%   Direction: 360°N
Pressure: 30.23"   Gusts: NA
Location:  33.8277°N, 90.9559°W
Report Text: KRNV 210315Z AUTO 36006KT 10SM CLR 05/03 A3023 RMK AO2 T00450033
Loading
Personal Weather Stations






























Interactive Weather Map New forecast layout! Learn more

10-Day Weather Forecast

Advertisements
Track Severe Weather on mobile